sensor_id;sensor_type;location;lat;lon;timestamp;P1;durP1;ratioP1;P2;durP2;ratioP2
36827;SDS011;22766;48.042;11.192;2023-05-07T00:01:44;2.90;;;2.28;;
36827;SDS011;22766;48.042;11.192;2023-05-07T00:04:11;5.05;;;1.73;;
36827;SDS011;22766;48.042;11.192;2023-05-07T00:06:38;4.05;;;2.05;;
36827;SDS011;22766;48.042;11.192;2023-05-07T00:09:06;3.60;;;1.92;;
36827;SDS011;22766;48.042;11.192;2023-05-07T00:11:33;2.13;;;1.70;;
36827;SDS011;22766;48.042;11.192;2023-05-07T00:14:02;3.17;;;2.00;;
36827;SDS011;22766;48.042;11.192;2023-05-07T00:16:29;4.05;;;2.25;;
36827;SDS011;22766;48.042;11.192;2023-05-07T00:18:56;7.25;;;2.65;;
36827;SDS011;22766;48.042;11.192;2023-05-07T00:21:23;4.65;;;2.40;;
36827;SDS011;22766;48.042;11.192;2023-05-07T00:23:53;3.97;;;2.00;;
36827;SDS011;22766;48.042;11.192;2023-05-07T00:26:20;4.15;;;2.22;;
36827;SDS011;22766;48.042;11.192;2023-05-07T00:28:49;3.63;;;1.92;;
36827;SDS011;22766;48.042;11.192;2023-05-07T00:31:15;3.22;;;2.35;;
36827;SDS011;22766;48.042;11.192;2023-05-07T00:33:42;3.40;;;2.20;;
36827;SDS011;22766;48.042;11.192;2023-05-07T00:36:09;4.07;;;2.08;;
36827;SDS011;22766;48.042;11.192;2023-05-07T00:38:35;2.53;;;2.33;;
36827;SDS011;22766;48.042;11.192;2023-05-07T00:41:02;6.47;;;2.22;;
36827;SDS011;22766;48.042;11.192;2023-05-07T00:43:29;5.65;;;1.85;;
36827;SDS011;22766;48.042;11.192;2023-05-07T00:45:56;4.70;;;2.17;;
36827;SDS011;22766;48.042;11.192;2023-05-07T00:48:23;2.58;;;1.95;;
36827;SDS011;22766;48.042;11.192;2023-05-07T00:50:50;4.60;;;2.20;;
36827;SDS011;22766;48.042;11.192;2023-05-07T00:53:17;3.83;;;2.65;;
36827;SDS011;22766;48.042;11.192;2023-05-07T00:55:44;2.40;;;1.77;;
36827;SDS011;22766;48.042;11.192;2023-05-07T00:58:11;4.60;;;2.03;;
36827;SDS011;22766;48.042;11.192;2023-05-07T01:00:38;4.70;;;2.10;;
36827;SDS011;22766;48.042;11.192;2023-05-07T01:03:05;3.35;;;2.55;;
36827;SDS011;22766;48.042;11.192;2023-05-07T01:05:32;3.25;;;2.47;;
36827;SDS011;22766;48.042;11.192;2023-05-07T01:07:59;3.90;;;2.13;;
36827;SDS011;22766;48.042;11.192;2023-05-07T01:10:27;7.63;;;2.15;;
36827;SDS011;22766;48.042;11.192;2023-05-07T01:12:57;4.80;;;2.95;;
36827;SDS011;22766;48.042;11.192;2023-05-07T01:15:25;3.83;;;2.25;;
36827;SDS011;22766;48.042;11.192;2023-05-07T01:17:52;3.85;;;2.15;;
36827;SDS011;22766;48.042;11.192;2023-05-07T01:20:26;5.53;;;2.55;;
36827;SDS011;22766;48.042;11.192;2023-05-07T01:22:55;1.98;;;1.67;;
36827;SDS011;22766;48.042;11.192;2023-05-07T01:25:23;3.13;;;2.05;;
36827;SDS011;22766;48.042;11.192;2023-05-07T01:27:55;3.70;;;1.88;;
36827;SDS011;22766;48.042;11.192;2023-05-07T01:30:26;3.67;;;2.50;;
36827;SDS011;22766;48.042;11.192;2023-05-07T01:32:59;3.75;;;2.10;;
36827;SDS011;22766;48.042;11.192;2023-05-07T01:35:32;2.83;;;2.13;;
36827;SDS011;22766;48.042;11.192;2023-05-07T01:38:04;2.72;;;1.90;;
36827;SDS011;22766;48.042;11.192;2023-05-07T01:40:32;4.05;;;2.10;;
36827;SDS011;22766;48.042;11.192;2023-05-07T01:43:01;2.85;;;2.10;;
36827;SDS011;22766;48.042;11.192;2023-05-07T01:45:30;4.18;;;1.88;;
36827;SDS011;22766;48.042;11.192;2023-05-07T01:47:58;3.60;;;2.55;;
36827;SDS011;22766;48.042;11.192;2023-05-07T01:50:25;2.78;;;1.77;;
36827;SDS011;22766;48.042;11.192;2023-05-07T01:52:53;5.45;;;2.22;;
36827;SDS011;22766;48.042;11.192;2023-05-07T01:55:20;6.03;;;2.00;;
36827;SDS011;22766;48.042;11.192;2023-05-07T01:57:47;3.60;;;2.22;;
36827;SDS011;22766;48.042;11.192;2023-05-07T02:00:14;3.47;;;2.38;;
36827;SDS011;22766;48.042;11.192;2023-05-07T02:02:40;4.05;;;2.10;;
36827;SDS011;22766;48.042;11.192;2023-05-07T02:05:17;3.17;;;2.38;;
36827;SDS011;22766;48.042;11.192;2023-05-07T02:07:47;4.28;;;2.38;;
36827;SDS011;22766;48.042;11.192;2023-05-07T02:10:15;2.95;;;2.42;;
36827;SDS011;22766;48.042;11.192;2023-05-07T02:12:42;4.25;;;2.17;;
36827;SDS011;22766;48.042;11.192;2023-05-07T02:15:09;7.82;;;2.65;;
36827;SDS011;22766;48.042;11.192;2023-05-07T02:17:39;3.53;;;2.45;;
36827;SDS011;22766;48.042;11.192;2023-05-07T02:20:24;4.05;;;2.83;;
36827;SDS011;22766;48.042;11.192;2023-05-07T02:22:51;3.63;;;2.63;;
36827;SDS011;22766;48.042;11.192;2023-05-07T02:25:18;6.22;;;2.92;;
36827;SDS011;22766;48.042;11.192;2023-05-07T02:27:45;5.05;;;3.10;;
36827;SDS011;22766;48.042;11.192;2023-05-07T02:30:13;4.82;;;2.92;;
36827;SDS011;22766;48.042;11.192;2023-05-07T02:32:40;4.28;;;3.00;;
36827;SDS011;22766;48.042;11.192;2023-05-07T02:35:07;3.72;;;2.45;;
36827;SDS011;22766;48.042;11.192;2023-05-07T02:37:34;5.00;;;2.63;;
36827;SDS011;22766;48.042;11.192;2023-05-07T02:40:01;4.95;;;2.65;;
36827;SDS011;22766;48.042;11.192;2023-05-07T02:42:30;4.18;;;2.75;;
36827;SDS011;22766;48.042;11.192;2023-05-07T02:44:57;4.50;;;2.78;;
36827;SDS011;22766;48.042;11.192;2023-05-07T02:47:24;5.57;;;2.70;;
36827;SDS011;22766;48.042;11.192;2023-05-07T02:49:53;3.95;;;2.38;;
36827;SDS011;22766;48.042;11.192;2023-05-07T02:52:21;4.82;;;2.33;;
36827;SDS011;22766;48.042;11.192;2023-05-07T02:54:48;2.80;;;2.30;;
36827;SDS011;22766;48.042;11.192;2023-05-07T02:57:15;3.70;;;2.80;;
36827;SDS011;22766;48.042;11.192;2023-05-07T02:59:42;2.78;;;2.28;;
36827;SDS011;22766;48.042;11.192;2023-05-07T03:02:10;4.97;;;2.83;;
36827;SDS011;22766;48.042;11.192;2023-05-07T03:04:36;5.05;;;2.90;;
36827;SDS011;22766;48.042;11.192;2023-05-07T03:07:03;5.32;;;2.70;;
36827;SDS011;22766;48.042;11.192;2023-05-07T03:09:30;4.30;;;2.80;;
36827;SDS011;22766;48.042;11.192;2023-05-07T03:11:57;3.08;;;2.25;;
36827;SDS011;22766;48.042;11.192;2023-05-07T03:14:23;4.25;;;2.83;;
36827;SDS011;22766;48.042;11.192;2023-05-07T03:16:50;3.30;;;2.08;;
36827;SDS011;22766;48.042;11.192;2023-05-07T03:19:17;3.67;;;2.17;;
36827;SDS011;22766;48.042;11.192;2023-05-07T03:21:43;3.10;;;2.15;;
36827;SDS011;22766;48.042;11.192;2023-05-07T03:24:10;2.75;;;2.08;;
36827;SDS011;22766;48.042;11.192;2023-05-07T03:26:37;3.92;;;2.38;;
36827;SDS011;22766;48.042;11.192;2023-05-07T03:29:03;4.32;;;2.80;;
36827;SDS011;22766;48.042;11.192;2023-05-07T03:31:30;4.88;;;2.75;;
36827;SDS011;22766;48.042;11.192;2023-05-07T03:33:59;3.95;;;2.88;;
36827;SDS011;22766;48.042;11.192;2023-05-07T03:36:26;3.97;;;2.60;;
36827;SDS011;22766;48.042;11.192;2023-05-07T03:38:55;4.10;;;2.33;;
36827;SDS011;22766;48.042;11.192;2023-05-07T03:41:24;3.67;;;2.33;;
36827;SDS011;22766;48.042;11.192;2023-05-07T03:43:52;4.88;;;2.72;;
36827;SDS011;22766;48.042;11.192;2023-05-07T03:46:19;2.85;;;2.00;;
36827;SDS011;22766;48.042;11.192;2023-05-07T03:48:46;2.67;;;1.80;;
36827;SDS011;22766;48.042;11.192;2023-05-07T03:51:14;3.90;;;2.53;;
36827;SDS011;22766;48.042;11.192;2023-05-07T03:53:40;3.90;;;2.30;;
36827;SDS011;22766;48.042;11.192;2023-05-07T03:56:08;3.80;;;2.33;;
36827;SDS011;22766;48.042;11.192;2023-05-07T03:58:37;5.90;;;2.58;;
36827;SDS011;22766;48.042;11.192;2023-05-07T04:01:07;3.95;;;2.47;;
36827;SDS011;22766;48.042;11.192;2023-05-07T04:03:34;3.78;;;2.25;;
36827;SDS011;22766;48.042;11.192;2023-05-07T04:06:01;3.38;;;2.60;;
36827;SDS011;22766;48.042;11.192;2023-05-07T04:08:29;2.78;;;2.35;;
36827;SDS011;22766;48.042;11.192;2023-05-07T04:10:57;3.45;;;2.55;;
36827;SDS011;22766;48.042;11.192;2023-05-07T04:13:29;3.50;;;2.63;;
36827;SDS011;22766;48.042;11.192;2023-05-07T04:15:57;3.75;;;2.60;;
36827;SDS011;22766;48.042;11.192;2023-05-07T04:18:25;2.38;;;1.92;;
36827;SDS011;22766;48.042;11.192;2023-05-07T04:20:52;2.83;;;1.75;;
36827;SDS011;22766;48.042;11.192;2023-05-07T04:23:20;3.05;;;2.00;;
36827;SDS011;22766;48.042;11.192;2023-05-07T04:25:47;2.30;;;1.70;;
36827;SDS011;22766;48.042;11.192;2023-05-07T04:28:22;3.53;;;2.05;;
36827;SDS011;22766;48.042;11.192;2023-05-07T04:30:50;4.75;;;1.90;;
36827;SDS011;22766;48.042;11.192;2023-05-07T04:33:18;1.70;;;1.48;;
36827;SDS011;22766;48.042;11.192;2023-05-07T04:35:46;4.70;;;2.40;;
36827;SDS011;22766;48.042;11.192;2023-05-07T04:38:13;4.20;;;2.55;;
36827;SDS011;22766;48.042;11.192;2023-05-07T04:40:41;4.25;;;2.08;;
36827;SDS011;22766;48.042;11.192;2023-05-07T04:43:11;2.97;;;2.17;;
36827;SDS011;22766;48.042;11.192;2023-05-07T04:45:44;4.32;;;2.33;;
36827;SDS011;22766;48.042;11.192;2023-05-07T04:48:12;3.95;;;2.33;;
36827;SDS011;22766;48.042;11.192;2023-05-07T04:50:40;5.43;;;2.60;;
36827;SDS011;22766;48.042;11.192;2023-05-07T04:53:08;7.25;;;2.67;;
36827;SDS011;22766;48.042;11.192;2023-05-07T04:55:34;5.50;;;2.05;;
36827;SDS011;22766;48.042;11.192;2023-05-07T04:58:02;3.80;;;2.28;;
36827;SDS011;22766;48.042;11.192;2023-05-07T05:00:32;3.05;;;1.98;;
36827;SDS011;22766;48.042;11.192;2023-05-07T05:03:02;2.53;;;1.88;;
36827;SDS011;22766;48.042;11.192;2023-05-07T05:05:29;5.68;;;2.40;;
36827;SDS011;22766;48.042;11.192;2023-05-07T05:07:56;2.97;;;2.30;;
36827;SDS011;22766;48.042;11.192;2023-05-07T05:10:24;3.40;;;2.00;;
36827;SDS011;22766;48.042;11.192;2023-05-07T05:12:51;2.28;;;1.92;;
36827;SDS011;22766;48.042;11.192;2023-05-07T05:15:19;3.38;;;2.00;;
36827;SDS011;22766;48.042;11.192;2023-05-07T05:17:46;3.63;;;2.13;;
36827;SDS011;22766;48.042;11.192;2023-05-07T05:20:14;3.50;;;2.10;;
36827;SDS011;22766;48.042;11.192;2023-05-07T05:22:41;3.38;;;1.98;;
36827;SDS011;22766;48.042;11.192;2023-05-07T05:25:09;4.25;;;2.38;;
36827;SDS011;22766;48.042;11.192;2023-05-07T05:27:36;3.22;;;2.15;;
36827;SDS011;22766;48.042;11.192;2023-05-07T05:30:04;3.03;;;2.40;;
36827;SDS011;22766;48.042;11.192;2023-05-07T05:32:33;6.90;;;2.25;;
36827;SDS011;22766;48.042;11.192;2023-05-07T05:35:00;3.20;;;2.10;;
36827;SDS011;22766;48.042;11.192;2023-05-07T05:37:28;4.00;;;2.35;;
36827;SDS011;22766;48.042;11.192;2023-05-07T05:39:57;3.58;;;2.25;;
36827;SDS011;22766;48.042;11.192;2023-05-07T05:42:25;2.85;;;1.90;;
36827;SDS011;22766;48.042;11.192;2023-05-07T05:44:53;2.65;;;2.05;;
36827;SDS011;22766;48.042;11.192;2023-05-07T05:47:21;3.35;;;1.90;;
36827;SDS011;22766;48.042;11.192;2023-05-07T05:49:50;3.63;;;2.00;;
36827;SDS011;22766;48.042;11.192;2023-05-07T05:52:17;3.60;;;1.67;;
36827;SDS011;22766;48.042;11.192;2023-05-07T05:54:45;2.97;;;1.65;;
36827;SDS011;22766;48.042;11.192;2023-05-07T05:57:11;2.45;;;1.80;;
36827;SDS011;22766;48.042;11.192;2023-05-07T05:59:38;4.28;;;1.88;;
36827;SDS011;22766;48.042;11.192;2023-05-07T06:02:05;3.63;;;1.88;;
36827;SDS011;22766;48.042;11.192;2023-05-07T06:04:33;2.53;;;1.80;;
36827;SDS011;22766;48.042;11.192;2023-05-07T06:06:59;3.72;;;1.77;;
36827;SDS011;22766;48.042;11.192;2023-05-07T06:09:26;4.18;;;1.92;;
36827;SDS011;22766;48.042;11.192;2023-05-07T06:11:53;2.90;;;1.90;;
36827;SDS011;22766;48.042;11.192;2023-05-07T06:14:20;2.92;;;1.95;;
36827;SDS011;22766;48.042;11.192;2023-05-07T06:16:47;3.80;;;1.90;;
36827;SDS011;22766;48.042;11.192;2023-05-07T06:19:14;4.40;;;2.05;;
36827;SDS011;22766;48.042;11.192;2023-05-07T06:21:41;4.32;;;1.85;;
36827;SDS011;22766;48.042;11.192;2023-05-07T06:24:08;2.15;;;1.48;;
36827;SDS011;22766;48.042;11.192;2023-05-07T06:26:36;3.10;;;1.70;;
36827;SDS011;22766;48.042;11.192;2023-05-07T06:29:03;2.13;;;1.50;;
36827;SDS011;22766;48.042;11.192;2023-05-07T06:31:33;1.73;;;1.15;;
36827;SDS011;22766;48.042;11.192;2023-05-07T06:34:03;3.33;;;1.55;;
36827;SDS011;22766;48.042;11.192;2023-05-07T06:36:33;2.25;;;1.30;;
36827;SDS011;22766;48.042;11.192;2023-05-07T06:39:08;2.88;;;1.40;;
36827;SDS011;22766;48.042;11.192;2023-05-07T06:41:35;2.05;;;1.35;;
36827;SDS011;22766;48.042;11.192;2023-05-07T06:44:07;2.53;;;1.65;;
36827;SDS011;22766;48.042;11.192;2023-05-07T06:46:43;4.85;;;1.60;;
36827;SDS011;22766;48.042;11.192;2023-05-07T06:49:10;1.92;;;1.33;;
36827;SDS011;22766;48.042;11.192;2023-05-07T06:51:39;3.08;;;1.60;;
36827;SDS011;22766;48.042;11.192;2023-05-07T06:54:05;4.28;;;1.55;;
36827;SDS011;22766;48.042;11.192;2023-05-07T06:56:35;2.50;;;1.50;;
36827;SDS011;22766;48.042;11.192;2023-05-07T06:59:03;2.33;;;1.80;;
36827;SDS011;22766;48.042;11.192;2023-05-07T07:01:34;5.15;;;2.10;;
36827;SDS011;22766;48.042;11.192;2023-05-07T07:04:02;2.30;;;1.73;;
36827;SDS011;22766;48.042;11.192;2023-05-07T07:06:30;2.85;;;1.77;;
36827;SDS011;22766;48.042;11.192;2023-05-07T07:08:59;2.20;;;1.58;;
36827;SDS011;22766;48.042;11.192;2023-05-07T07:11:27;4.35;;;1.60;;
36827;SDS011;22766;48.042;11.192;2023-05-07T07:13:54;2.17;;;1.52;;
36827;SDS011;22766;48.042;11.192;2023-05-07T07:16:21;2.42;;;1.50;;
36827;SDS011;22766;48.042;11.192;2023-05-07T07:18:49;1.67;;;1.42;;
36827;SDS011;22766;48.042;11.192;2023-05-07T07:21:18;4.45;;;1.58;;
36827;SDS011;22766;48.042;11.192;2023-05-07T07:23:45;1.70;;;1.38;;
36827;SDS011;22766;48.042;11.192;2023-05-07T07:26:12;2.58;;;1.50;;
36827;SDS011;22766;48.042;11.192;2023-05-07T07:28:43;3.53;;;1.27;;
36827;SDS011;22766;48.042;11.192;2023-05-07T07:31:16;2.40;;;1.50;;
36827;SDS011;22766;48.042;11.192;2023-05-07T07:33:43;5.15;;;1.52;;
36827;SDS011;22766;48.042;11.192;2023-05-07T07:36:10;2.75;;;1.50;;
36827;SDS011;22766;48.042;11.192;2023-05-07T07:38:37;3.17;;;1.70;;
36827;SDS011;22766;48.042;11.192;2023-05-07T07:41:04;4.35;;;1.50;;
36827;SDS011;22766;48.042;11.192;2023-05-07T07:43:31;3.85;;;1.20;;
36827;SDS011;22766;48.042;11.192;2023-05-07T07:45:58;3.63;;;1.50;;
36827;SDS011;22766;48.042;11.192;2023-05-07T07:48:26;2.15;;;1.35;;
36827;SDS011;22766;48.042;11.192;2023-05-07T07:50:53;3.13;;;1.88;;
36827;SDS011;22766;48.042;11.192;2023-05-07T07:53:20;2.55;;;1.38;;
36827;SDS011;22766;48.042;11.192;2023-05-07T07:55:48;4.80;;;1.52;;
36827;SDS011;22766;48.042;11.192;2023-05-07T07:58:17;2.22;;;1.20;;
36827;SDS011;22766;48.042;11.192;2023-05-07T08:00:44;1.83;;;1.10;;
36827;SDS011;22766;48.042;11.192;2023-05-07T08:03:12;3.53;;;1.35;;
36827;SDS011;22766;48.042;11.192;2023-05-07T08:05:43;1.80;;;1.20;;
36827;SDS011;22766;48.042;11.192;2023-05-07T08:08:10;2.45;;;1.23;;
36827;SDS011;22766;48.042;11.192;2023-05-07T08:10:38;1.00;;;0.90;;
36827;SDS011;22766;48.042;11.192;2023-05-07T08:13:12;2.25;;;0.90;;
36827;SDS011;22766;48.042;11.192;2023-05-07T08:15:40;3.15;;;0.98;;
36827;SDS011;22766;48.042;11.192;2023-05-07T08:18:07;1.70;;;0.90;;
36827;SDS011;22766;48.042;11.192;2023-05-07T08:20:35;2.95;;;1.23;;
36827;SDS011;22766;48.042;11.192;2023-05-07T08:23:08;1.77;;;0.98;;
36827;SDS011;22766;48.042;11.192;2023-05-07T08:25:36;3.22;;;1.30;;
36827;SDS011;22766;48.042;11.192;2023-05-07T08:28:04;3.28;;;0.80;;
36827;SDS011;22766;48.042;11.192;2023-05-07T08:30:32;1.48;;;0.95;;
36827;SDS011;22766;48.042;11.192;2023-05-07T08:33:00;1.85;;;0.95;;
36827;SDS011;22766;48.042;11.192;2023-05-07T08:35:27;3.13;;;0.80;;
36827;SDS011;22766;48.042;11.192;2023-05-07T08:37:54;2.03;;;0.80;;
36827;SDS011;22766;48.042;11.192;2023-05-07T08:40:25;1.75;;;0.93;;
36827;SDS011;22766;48.042;11.192;2023-05-07T08:42:54;2.33;;;0.80;;
36827;SDS011;22766;48.042;11.192;2023-05-07T08:45:23;3.17;;;0.80;;
36827;SDS011;22766;48.042;11.192;2023-05-07T08:47:52;1.00;;;0.90;;
36827;SDS011;22766;48.042;11.192;2023-05-07T08:50:28;1.05;;;0.77;;
36827;SDS011;22766;48.042;11.192;2023-05-07T08:52:58;2.85;;;0.85;;
36827;SDS011;22766;48.042;11.192;2023-05-07T08:55:26;1.25;;;0.77;;
36827;SDS011;22766;48.042;11.192;2023-05-07T08:57:55;1.85;;;0.80;;
36827;SDS011;22766;48.042;11.192;2023-05-07T09:00:22;1.50;;;0.73;;
36827;SDS011;22766;48.042;11.192;2023-05-07T09:02:52;2.85;;;0.70;;
36827;SDS011;22766;48.042;11.192;2023-05-07T09:05:19;2.17;;;0.90;;
36827;SDS011;22766;48.042;11.192;2023-05-07T09:07:47;2.70;;;0.90;;
36827;SDS011;22766;48.042;11.192;2023-05-07T09:10:14;1.50;;;0.60;;
36827;SDS011;22766;48.042;11.192;2023-05-07T09:12:42;1.65;;;0.70;;
36827;SDS011;22766;48.042;11.192;2023-05-07T09:15:11;3.53;;;1.02;;
36827;SDS011;22766;48.042;11.192;2023-05-07T09:17:39;1.08;;;0.75;;
36827;SDS011;22766;48.042;11.192;2023-05-07T09:20:07;1.80;;;0.73;;
36827;SDS011;22766;48.042;11.192;2023-05-07T09:22:37;1.17;;;0.73;;
36827;SDS011;22766;48.042;11.192;2023-05-07T09:25:08;0.77;;;0.70;;
36827;SDS011;22766;48.042;11.192;2023-05-07T09:27:37;1.58;;;0.80;;
36827;SDS011;22766;48.042;11.192;2023-05-07T09:30:04;2.45;;;0.80;;
36827;SDS011;22766;48.042;11.192;2023-05-07T09:32:36;1.38;;;0.75;;
36827;SDS011;22766;48.042;11.192;2023-05-07T09:35:15;0.80;;;0.80;;
36827;SDS011;22766;48.042;11.192;2023-05-07T09:37:46;1.80;;;0.80;;
36827;SDS011;22766;48.042;11.192;2023-05-07T09:40:20;1.25;;;0.80;;
36827;SDS011;22766;48.042;11.192;2023-05-07T09:42:49;1.92;;;0.80;;
36827;SDS011;22766;48.042;11.192;2023-05-07T09:45:27;2.97;;;0.98;;
36827;SDS011;22766;48.042;11.192;2023-05-07T09:47:57;2.60;;;0.70;;
36827;SDS011;22766;48.042;11.192;2023-05-07T09:50:27;1.98;;;0.70;;
36827;SDS011;22766;48.042;11.192;2023-05-07T09:52:59;1.75;;;0.85;;
36827;SDS011;22766;48.042;11.192;2023-05-07T09:55:27;1.83;;;0.93;;
36827;SDS011;22766;48.042;11.192;2023-05-07T09:57:54;5.00;;;1.63;;
36827;SDS011;22766;48.042;11.192;2023-05-07T10:00:23;11.25;;;4.90;;
36827;SDS011;22766;48.042;11.192;2023-05-07T10:02:58;5.85;;;2.70;;
36827;SDS011;22766;48.042;11.192;2023-05-07T10:05:36;1.83;;;1.10;;
36827;SDS011;22766;48.042;11.192;2023-05-07T10:08:03;1.20;;;0.73;;
36827;SDS011;22766;48.042;11.192;2023-05-07T10:10:34;2.53;;;1.05;;
36827;SDS011;22766;48.042;11.192;2023-05-07T10:13:02;2.28;;;1.42;;
36827;SDS011;22766;48.042;11.192;2023-05-07T10:15:33;2.60;;;0.70;;
36827;SDS011;22766;48.042;11.192;2023-05-07T10:18:03;7.32;;;2.08;;
36827;SDS011;22766;48.042;11.192;2023-05-07T10:20:30;1.90;;;0.80;;
36827;SDS011;22766;48.042;11.192;2023-05-07T10:22:59;2.53;;;0.90;;
36827;SDS011;22766;48.042;11.192;2023-05-07T10:25:35;1.10;;;0.80;;
36827;SDS011;22766;48.042;11.192;2023-05-07T10:28:08;1.90;;;1.08;;
36827;SDS011;22766;48.042;11.192;2023-05-07T10:33:38;1.88;;;0.90;;
36827;SDS011;22766;48.042;11.192;2023-05-07T10:36:07;4.40;;;1.35;;
36827;SDS011;22766;48.042;11.192;2023-05-07T10:38:34;5.93;;;3.50;;
36827;SDS011;22766;48.042;11.192;2023-05-07T10:41:01;2.90;;;2.15;;
36827;SDS011;22766;48.042;11.192;2023-05-07T10:43:43;1.40;;;0.77;;
36827;SDS011;22766;48.042;11.192;2023-05-07T10:46:20;2.47;;;1.00;;
36827;SDS011;22766;48.042;11.192;2023-05-07T10:57:50;1.55;;;0.80;;
36827;SDS011;22766;48.042;11.192;2023-05-07T11:05:34;1.27;;;0.88;;
36827;SDS011;22766;48.042;11.192;2023-05-07T11:08:14;3.63;;;0.60;;
36827;SDS011;22766;48.042;11.192;2023-05-07T11:13:41;2.97;;;0.90;;
36827;SDS011;22766;48.042;11.192;2023-05-07T11:16:34;3.83;;;0.98;;
36827;SDS011;22766;48.042;11.192;2023-05-07T11:22:36;1.88;;;0.80;;
36827;SDS011;22766;48.042;11.192;2023-05-07T11:25:38;2.10;;;0.90;;
36827;SDS011;22766;48.042;11.192;2023-05-07T11:28:14;1.20;;;0.68;;
36827;SDS011;22766;48.042;11.192;2023-05-07T11:30:47;1.48;;;0.75;;
36827;SDS011;22766;48.042;11.192;2023-05-07T11:33:17;4.13;;;0.80;;
36827;SDS011;22766;48.042;11.192;2023-05-07T11:35:46;2.35;;;0.80;;
36827;SDS011;22766;48.042;11.192;2023-05-07T11:38:16;1.88;;;1.00;;
36827;SDS011;22766;48.042;11.192;2023-05-07T11:40:51;2.88;;;0.93;;
36827;SDS011;22766;48.042;11.192;2023-05-07T11:43:19;1.52;;;0.75;;
36827;SDS011;22766;48.042;11.192;2023-05-07T11:45:46;4.13;;;1.10;;
36827;SDS011;22766;48.042;11.192;2023-05-07T11:48:13;2.35;;;1.25;;
36827;SDS011;22766;48.042;11.192;2023-05-07T11:53:26;2.60;;;0.93;;
36827;SDS011;22766;48.042;11.192;2023-05-07T11:55:57;3.25;;;0.98;;
36827;SDS011;22766;48.042;11.192;2023-05-07T11:58:24;2.55;;;0.90;;
36827;SDS011;22766;48.042;11.192;2023-05-07T12:00:54;1.35;;;0.70;;
36827;SDS011;22766;48.042;11.192;2023-05-07T12:03:21;2.53;;;0.70;;
36827;SDS011;22766;48.042;11.192;2023-05-07T12:05:48;1.55;;;0.80;;
36827;SDS011;22766;48.042;11.192;2023-05-07T12:08:15;1.08;;;0.75;;
36827;SDS011;22766;48.042;11.192;2023-05-07T12:10:46;2.20;;;0.82;;
36827;SDS011;22766;48.042;11.192;2023-05-07T12:13:20;1.15;;;0.85;;
36827;SDS011;22766;48.042;11.192;2023-05-07T12:15:52;3.13;;;1.05;;
36827;SDS011;22766;48.042;11.192;2023-05-07T12:18:22;3.13;;;1.00;;
36827;SDS011;22766;48.042;11.192;2023-05-07T12:20:49;1.65;;;0.82;;
36827;SDS011;22766;48.042;11.192;2023-05-07T12:23:17;3.60;;;1.10;;
36827;SDS011;22766;48.042;11.192;2023-05-07T12:25:44;2.60;;;0.70;;
36827;SDS011;22766;48.042;11.192;2023-05-07T12:28:14;3.53;;;1.02;;
36827;SDS011;22766;48.042;11.192;2023-05-07T12:30:42;0.60;;;0.55;;
36827;SDS011;22766;48.042;11.192;2023-05-07T12:33:10;1.10;;;0.85;;
36827;SDS011;22766;48.042;11.192;2023-05-07T12:35:38;1.85;;;0.65;;
36827;SDS011;22766;48.042;11.192;2023-05-07T12:38:10;3.20;;;0.63;;
36827;SDS011;22766;48.042;11.192;2023-05-07T12:40:42;3.35;;;1.23;;
36827;SDS011;22766;48.042;11.192;2023-05-07T12:43:21;2.35;;;1.30;;
36827;SDS011;22766;48.042;11.192;2023-05-07T12:48:21;5.55;;;0.98;;
36827;SDS011;22766;48.042;11.192;2023-05-07T12:50:49;2.30;;;0.90;;
36827;SDS011;22766;48.042;11.192;2023-05-07T12:53:17;1.52;;;0.93;;
36827;SDS011;22766;48.042;11.192;2023-05-07T12:55:48;1.92;;;1.00;;
36827;SDS011;22766;48.042;11.192;2023-05-07T12:58:17;2.38;;;0.95;;
36827;SDS011;22766;48.042;11.192;2023-05-07T13:00:48;1.52;;;0.73;;
36827;SDS011;22766;48.042;11.192;2023-05-07T13:03:20;1.88;;;0.75;;
36827;SDS011;22766;48.042;11.192;2023-05-07T13:05:59;2.67;;;0.70;;
36827;SDS011;22766;48.042;11.192;2023-05-07T13:08:37;2.50;;;0.93;;
36827;SDS011;22766;48.042;11.192;2023-05-07T13:11:07;1.10;;;0.88;;
36827;SDS011;22766;48.042;11.192;2023-05-07T13:13:35;1.85;;;0.82;;
36827;SDS011;22766;48.042;11.192;2023-05-07T13:16:04;2.95;;;0.90;;
36827;SDS011;22766;48.042;11.192;2023-05-07T13:18:32;1.30;;;1.00;;
36827;SDS011;22766;48.042;11.192;2023-05-07T13:21:00;3.08;;;1.00;;
36827;SDS011;22766;48.042;11.192;2023-05-07T13:23:27;2.20;;;0.80;;
36827;SDS011;22766;48.042;11.192;2023-05-07T13:25:54;2.00;;;0.82;;
36827;SDS011;22766;48.042;11.192;2023-05-07T13:28:25;3.28;;;1.13;;
36827;SDS011;22766;48.042;11.192;2023-05-07T13:30:52;1.40;;;0.98;;
36827;SDS011;22766;48.042;11.192;2023-05-07T13:33:21;1.98;;;0.80;;
36827;SDS011;22766;48.042;11.192;2023-05-07T13:35:47;1.42;;;0.90;;
36827;SDS011;22766;48.042;11.192;2023-05-07T13:38:14;1.52;;;0.90;;
36827;SDS011;22766;48.042;11.192;2023-05-07T13:40:42;2.10;;;1.00;;
36827;SDS011;22766;48.042;11.192;2023-05-07T13:43:09;2.83;;;1.00;;
36827;SDS011;22766;48.042;11.192;2023-05-07T13:45:37;1.98;;;0.80;;
36827;SDS011;22766;48.042;11.192;2023-05-07T13:48:04;1.40;;;1.08;;
36827;SDS011;22766;48.042;11.192;2023-05-07T13:50:31;1.17;;;0.77;;
36827;SDS011;22766;48.042;11.192;2023-05-07T13:52:57;2.38;;;1.20;;
36827;SDS011;22766;48.042;11.192;2023-05-07T13:55:24;3.65;;;0.98;;
36827;SDS011;22766;48.042;11.192;2023-05-07T13:58:00;3.42;;;1.00;;
36827;SDS011;22766;48.042;11.192;2023-05-07T14:00:32;2.67;;;0.93;;
36827;SDS011;22766;48.042;11.192;2023-05-07T14:02:59;2.40;;;0.90;;
36827;SDS011;22766;48.042;11.192;2023-05-07T14:05:26;3.15;;;1.00;;
36827;SDS011;22766;48.042;11.192;2023-05-07T14:07:56;1.10;;;0.90;;
36827;SDS011;22766;48.042;11.192;2023-05-07T14:10:24;1.48;;;1.10;;
36827;SDS011;22766;48.042;11.192;2023-05-07T14:12:51;1.35;;;0.77;;
36827;SDS011;22766;48.042;11.192;2023-05-07T14:15:19;3.58;;;1.00;;
36827;SDS011;22766;48.042;11.192;2023-05-07T14:17:45;3.30;;;0.82;;
36827;SDS011;22766;48.042;11.192;2023-05-07T14:20:13;2.70;;;1.05;;
36827;SDS011;22766;48.042;11.192;2023-05-07T14:22:40;1.70;;;0.90;;
36827;SDS011;22766;48.042;11.192;2023-05-07T14:25:07;1.20;;;0.80;;
36827;SDS011;22766;48.042;11.192;2023-05-07T14:27:36;1.15;;;0.80;;
36827;SDS011;22766;48.042;11.192;2023-05-07T14:30:03;2.65;;;1.13;;
36827;SDS011;22766;48.042;11.192;2023-05-07T14:32:30;0.70;;;0.70;;
36827;SDS011;22766;48.042;11.192;2023-05-07T14:34:56;1.38;;;1.00;;
36827;SDS011;22766;48.042;11.192;2023-05-07T14:37:23;2.00;;;0.98;;
36827;SDS011;22766;48.042;11.192;2023-05-07T14:39:50;0.98;;;0.70;;
36827;SDS011;22766;48.042;11.192;2023-05-07T14:42:17;0.88;;;0.68;;
36827;SDS011;22766;48.042;11.192;2023-05-07T14:44:45;2.75;;;0.80;;
36827;SDS011;22766;48.042;11.192;2023-05-07T14:47:14;1.17;;;0.65;;
36827;SDS011;22766;48.042;11.192;2023-05-07T14:49:45;0.93;;;0.77;;
36827;SDS011;22766;48.042;11.192;2023-05-07T14:52:11;0.70;;;0.52;;
36827;SDS011;22766;48.042;11.192;2023-05-07T14:54:38;1.92;;;0.80;;
36827;SDS011;22766;48.042;11.192;2023-05-07T14:57:05;1.40;;;0.90;;
36827;SDS011;22766;48.042;11.192;2023-05-07T14:59:33;2.40;;;0.77;;
36827;SDS011;22766;48.042;11.192;2023-05-07T15:02:00;0.70;;;0.70;;
36827;SDS011;22766;48.042;11.192;2023-05-07T15:04:31;2.13;;;0.70;;
36827;SDS011;22766;48.042;11.192;2023-05-07T15:06:58;1.25;;;0.90;;
36827;SDS011;22766;48.042;11.192;2023-05-07T15:09:24;1.80;;;0.73;;
36827;SDS011;22766;48.042;11.192;2023-05-07T15:11:51;1.80;;;1.20;;